Portada
METAR-TAF:

METAR-TAF

Aeroports :

Aeroport Internacional de Tòquio

Tòquio Haneda, Japó

latitud: 35-33N, longitud: 139-47E, altitud: 5 m

Observació

L'informe es va fer fa 13 minuts, a les 21:00 UTC
Vent 13 kt del Sud/Sud-Oest
Temperatura 28°C
Humitat 84%
Pressió 1014 hPa
Visibilitat 10 km o més
Escasses núvols a una alçada de 1500 ft
Cel ennuvolat

METAR: RJTT 142100Z 20013KT 9999 FEW015 BKN/// 28/25 Q1014 NOSIG RMK 1CU015 A2996

Hora: 06:13 (21:13 UTC)

Pronòstic

L'informe es va fer fa 4 hores i 8 minuts, a les 17:05 UTC
Pronòstic vàlid del 14 a les 18 UTC al 16 a les 00 UTC
Vent 14 kt del Sud/Sud-Oest
Visibilitat 10 km o més
Escasses núvols a una alçada de 1500 ft
Temporalment
l' 15 a les 21 UTC al 16 a les 00 UTC
Vent 24 kt del Sud/Sud-Oest amb ràfegues de 34 kt

TAF: RJTT 141705Z 1418/1600 20014KT 9999 FEW015 TEMPO 1521/1600 20024G34KT

Observacions i pronòstics meteorològics de més de 4000 aeroports (METAR i TAF).

Les estacions disponibles són els punts grocs i vermells al mapa.

Posi el ratolí al punt desitjat per veure el nom de l'estació.

Feu clic per veure les observacions i els pronòstics meteorològics.

Per canviar el mapa: feu clic els botons verds amb una creu de color negre per apropar; al botó verd amb un guió per allunyar la imatge; o en les fletxes verdes per a mapes adjacents.


METAR-TAF: